Terminal Aerodrome Forecast
Issued by NWS

Home | Current Version | Previous Version | Graphics & Text | Print | Product List | Glossary On
Versions: 1 2 3 4 5 6 7 8 9 10 11 12 13 14 15 16 17 18 19 20 21 22
000
FTUS43 KBIS 261700
TAFJMS
TAF
KJMS 261726Z 2618/2718 05006KT P6SM BKN045
     FM270000 08006KT P6SM SCT100
     FM271400 15008KT P6SM -RASN BKN015 OVC025=

USA.gov is the U.S. government's official web portal to all federal, state and local government web resources and services.